sensor_id;sensor_type;location;lat;lon;timestamp;pressure;altitude;pressure_sealevel;temperature;humidity
47761;BME280;33524;55.434;38.520;2023-12-29T00:02:23;99587.00;;;-3.87;90.07
47761;BME280;33524;55.434;38.520;2023-12-29T00:04:51;99582.16;;;-3.98;89.28
47761;BME280;33524;55.434;38.520;2023-12-29T00:07:19;99568.50;;;-4.00;89.09
47761;BME280;33524;55.434;38.520;2023-12-29T00:09:48;99573.50;;;-3.94;89.04
47761;BME280;33524;55.434;38.520;2023-12-29T00:12:17;99561.63;;;-3.99;88.95
47761;BME280;33524;55.434;38.520;2023-12-29T00:14:45;99558.28;;;-4.01;88.79
47761;BME280;33524;55.434;38.520;2023-12-29T00:17:13;99534.63;;;-4.14;88.76
47761;BME280;33524;55.434;38.520;2023-12-29T00:19:42;99542.81;;;-4.00;88.97
47761;BME280;33524;55.434;38.520;2023-12-29T00:22:10;99520.00;;;-4.11;88.80
47761;BME280;33524;55.434;38.520;2023-12-29T00:24:38;99539.62;;;-4.08;89.15
47761;BME280;33524;55.434;38.520;2023-12-29T00:27:08;99535.84;;;-3.95;90.32
47761;BME280;33524;55.434;38.520;2023-12-29T00:29:36;99535.84;;;-3.95;89.10
47761;BME280;33524;55.434;38.520;2023-12-29T00:32:04;99533.53;;;-4.06;89.43
47761;BME280;33524;55.434;38.520;2023-12-29T00:34:33;99530.28;;;-4.11;89.42
47761;BME280;33524;55.434;38.520;2023-12-29T00:37:02;99524.34;;;-4.13;89.57
47761;BME280;33524;55.434;38.520;2023-12-29T00:39:30;99512.31;;;-4.12;89.90
47761;BME280;33524;55.434;38.520;2023-12-29T00:41:59;99507.28;;;-4.15;89.68
47761;BME280;33524;55.434;38.520;2023-12-29T00:44:27;99509.06;;;-4.17;89.95
47761;BME280;33524;55.434;38.520;2023-12-29T00:46:56;99514.31;;;-3.91;90.78
47761;BME280;33524;55.434;38.520;2023-12-29T00:49:25;99509.47;;;-4.01;89.89
47761;BME280;33524;55.434;38.520;2023-12-29T00:51:53;99496.75;;;-4.06;90.31
47761;BME280;33524;55.434;38.520;2023-12-29T00:54:21;99498.47;;;-4.05;90.05
47761;BME280;33524;55.434;38.520;2023-12-29T00:56:52;99498.63;;;-4.11;90.20
47761;BME280;33524;55.434;38.520;2023-12-29T00:59:21;99494.28;;;-4.09;91.19
47761;BME280;33524;55.434;38.520;2023-12-29T01:01:49;99495.97;;;-4.08;91.41
47761;BME280;33524;55.434;38.520;2023-12-29T01:04:18;99486.50;;;-4.06;91.09
47761;BME280;33524;55.434;38.520;2023-12-29T01:06:46;99483.78;;;-4.01;90.98
47761;BME280;33524;55.434;38.520;2023-12-29T01:09:15;99460.09;;;-4.11;90.79
47761;BME280;33524;55.434;38.520;2023-12-29T01:11:44;99480.47;;;-4.05;90.89
47761;BME280;33524;55.434;38.520;2023-12-29T01:14:13;99474.41;;;-4.02;90.45
47761;BME280;33524;55.434;38.520;2023-12-29T01:16:41;99472.31;;;-3.88;91.20
47761;BME280;33524;55.434;38.520;2023-12-29T01:19:10;99468.31;;;-3.98;90.95
47761;BME280;33524;55.434;38.520;2023-12-29T01:21:38;99453.50;;;-3.31;94.09
47761;BME280;33524;55.434;38.520;2023-12-29T01:24:07;99448.69;;;-3.15;92.81
47761;BME280;33524;55.434;38.520;2023-12-29T01:26:39;99448.22;;;-3.84;89.55
47761;BME280;33524;55.434;38.520;2023-12-29T01:29:08;99454.69;;;-4.02;89.89
47761;BME280;33524;55.434;38.520;2023-12-29T01:31:36;99424.09;;;-4.10;90.70
47761;BME280;33524;55.434;38.520;2023-12-29T01:34:06;99436.59;;;-3.68;92.42
47761;BME280;33524;55.434;38.520;2023-12-29T01:36:34;99436.53;;;-3.96;90.00
47761;BME280;33524;55.434;38.520;2023-12-29T01:39:02;99428.56;;;-3.87;90.40
47761;BME280;33524;55.434;38.520;2023-12-29T01:41:31;99420.69;;;-3.80;90.73
47761;BME280;33524;55.434;38.520;2023-12-29T01:46:29;99413.69;;;-3.75;89.77
47761;BME280;33524;55.434;38.520;2023-12-29T01:48:58;99386.53;;;-2.76;94.76
47761;BME280;33524;55.434;38.520;2023-12-29T01:51:28;99384.94;;;-3.05;89.02
47761;BME280;33524;55.434;38.520;2023-12-29T01:53:58;99372.28;;;-3.38;90.20
47761;BME280;33524;55.434;38.520;2023-12-29T01:56:27;99387.59;;;-3.61;89.25
47761;BME280;33524;55.434;38.520;2023-12-29T01:58:56;99398.16;;;-3.72;89.28
47761;BME280;33524;55.434;38.520;2023-12-29T02:01:38;99401.25;;;-3.89;89.54
47761;BME280;33524;55.434;38.520;2023-12-29T02:04:08;99408.94;;;-3.89;89.68
47761;BME280;33524;55.434;38.520;2023-12-29T02:06:37;99388.19;;;-3.81;90.41
47761;BME280;33524;55.434;38.520;2023-12-29T02:09:06;99390.97;;;-3.89;89.75
47761;BME280;33524;55.434;38.520;2023-12-29T02:11:35;99385.47;;;-3.49;93.13
47761;BME280;33524;55.434;38.520;2023-12-29T02:14:03;99376.63;;;-3.68;91.23
47761;BME280;33524;55.434;38.520;2023-12-29T02:19:52;99384.56;;;-3.48;89.54
47761;BME280;33524;55.434;38.520;2023-12-29T02:22:21;99373.78;;;-3.87;90.37
47761;BME280;33524;55.434;38.520;2023-12-29T02:24:51;99363.50;;;-3.59;91.34
47761;BME280;33524;55.434;38.520;2023-12-29T02:27:25;99349.53;;;-3.50;91.58
47761;BME280;33524;55.434;38.520;2023-12-29T02:32:55;99333.69;;;-3.93;89.86
47761;BME280;33524;55.434;38.520;2023-12-29T02:35:28;99341.41;;;-3.65;92.78
47761;BME280;33524;55.434;38.520;2023-12-29T02:38:01;99341.56;;;-3.69;90.73
47761;BME280;33524;55.434;38.520;2023-12-29T02:40:30;99329.72;;;-2.95;94.30
47761;BME280;33524;55.434;38.520;2023-12-29T02:42:58;99315.63;;;-3.35;90.75
47761;BME280;33524;55.434;38.520;2023-12-29T02:45:27;99302.09;;;-3.15;92.70
47761;BME280;33524;55.434;38.520;2023-12-29T02:47:55;99307.34;;;-3.18;90.18
47761;BME280;33524;55.434;38.520;2023-12-29T02:50:23;99300.41;;;-3.41;90.60
47761;BME280;33524;55.434;38.520;2023-12-29T02:52:52;99301.03;;;-3.34;89.59
47761;BME280;33524;55.434;38.520;2023-12-29T02:55:20;99301.63;;;-3.53;88.56
47761;BME280;33524;55.434;38.520;2023-12-29T02:57:48;99290.59;;;-3.30;89.84
47761;BME280;33524;55.434;38.520;2023-12-29T03:00:17;99289.47;;;-3.22;88.88
47761;BME280;33524;55.434;38.520;2023-12-29T03:02:45;99288.62;;;-3.48;91.46
47761;BME280;33524;55.434;38.520;2023-12-29T03:05:14;99300.06;;;-3.85;89.40
47761;BME280;33524;55.434;38.520;2023-12-29T03:07:42;99306.34;;;-3.94;89.99
47761;BME280;33524;55.434;38.520;2023-12-29T03:10:11;99308.22;;;-3.99;90.07
47761;BME280;33524;55.434;38.520;2023-12-29T03:12:39;99300.44;;;-3.97;90.17
47761;BME280;33524;55.434;38.520;2023-12-29T03:15:07;99293.13;;;-3.81;91.56
47761;BME280;33524;55.434;38.520;2023-12-29T03:17:36;99285.78;;;-3.94;90.16
47761;BME280;33524;55.434;38.520;2023-12-29T03:20:04;99280.47;;;-3.88;90.32
47761;BME280;33524;55.434;38.520;2023-12-29T03:22:33;99246.37;;;-3.93;89.89
47761;BME280;33524;55.434;38.520;2023-12-29T03:25:01;99266.63;;;-3.83;89.97
47761;BME280;33524;55.434;38.520;2023-12-29T03:27:31;99252.16;;;-3.86;89.55
47761;BME280;33524;55.434;38.520;2023-12-29T03:29:59;99247.63;;;-3.51;90.69
47761;BME280;33524;55.434;38.520;2023-12-29T03:32:30;99249.72;;;-3.64;89.74
47761;BME280;33524;55.434;38.520;2023-12-29T03:34:59;99243.81;;;-3.66;89.30
47761;BME280;33524;55.434;38.520;2023-12-29T03:37:29;99247.56;;;-3.76;89.22
47761;BME280;33524;55.434;38.520;2023-12-29T03:39:57;99235.66;;;-3.79;89.33
47761;BME280;33524;55.434;38.520;2023-12-29T03:42:28;99230.47;;;-3.77;89.37
47761;BME280;33524;55.434;38.520;2023-12-29T03:45:00;99231.75;;;-3.64;89.00
47761;BME280;33524;55.434;38.520;2023-12-29T03:47:30;99217.06;;;-3.60;89.38
47761;BME280;33524;55.434;38.520;2023-12-29T03:50:00;99216.03;;;-3.55;90.30
47761;BME280;33524;55.434;38.520;2023-12-29T03:52:29;99213.88;;;-3.67;89.15
47761;BME280;33524;55.434;38.520;2023-12-29T03:54:58;99205.41;;;-3.71;89.30
47761;BME280;33524;55.434;38.520;2023-12-29T03:57:26;99189.72;;;-3.13;91.73
47761;BME280;33524;55.434;38.520;2023-12-29T03:59:55;99202.06;;;-3.48;89.50
47761;BME280;33524;55.434;38.520;2023-12-29T04:02:23;99168.38;;;-3.40;90.62
47761;BME280;33524;55.434;38.520;2023-12-29T04:04:51;99183.31;;;-3.76;89.34
47761;BME280;33524;55.434;38.520;2023-12-29T04:07:20;99189.78;;;-3.65;89.13
47761;BME280;33524;55.434;38.520;2023-12-29T04:09:48;99188.22;;;-3.69;89.07
47761;BME280;33524;55.434;38.520;2023-12-29T04:12:16;99191.84;;;-3.49;89.79
47761;BME280;33524;55.434;38.520;2023-12-29T04:14:45;99191.31;;;-3.59;88.94
47761;BME280;33524;55.434;38.520;2023-12-29T04:17:13;99174.62;;;-3.72;89.23
47761;BME280;33524;55.434;38.520;2023-12-29T04:19:42;99186.75;;;-3.51;88.93
47761;BME280;33524;55.434;38.520;2023-12-29T04:22:13;99185.44;;;-3.62;89.29
47761;BME280;33524;55.434;38.520;2023-12-29T04:24:44;99181.22;;;-3.63;90.38
47761;BME280;33524;55.434;38.520;2023-12-29T04:27:14;99177.94;;;-3.69;91.06
47761;BME280;33524;55.434;38.520;2023-12-29T04:29:46;99190.69;;;-3.66;90.76
47761;BME280;33524;55.434;38.520;2023-12-29T04:32:17;99183.81;;;-3.65;90.77
47761;BME280;33524;55.434;38.520;2023-12-29T04:34:45;99170.34;;;-3.72;90.52
47761;BME280;33524;55.434;38.520;2023-12-29T04:37:14;99173.88;;;-3.49;90.94
47761;BME280;33524;55.434;38.520;2023-12-29T04:39:42;99167.22;;;-3.31;90.19
47761;BME280;33524;55.434;38.520;2023-12-29T04:42:10;99160.38;;;-3.07;91.85
47761;BME280;33524;55.434;38.520;2023-12-29T04:44:39;99154.72;;;-3.40;89.00
47761;BME280;33524;55.434;38.520;2023-12-29T04:47:08;99152.66;;;-3.31;89.70
47761;BME280;33524;55.434;38.520;2023-12-29T04:49:36;99140.06;;;-3.38;91.00
47761;BME280;33524;55.434;38.520;2023-12-29T04:52:04;99132.44;;;-3.41;91.13
47761;BME280;33524;55.434;38.520;2023-12-29T04:54:33;99147.16;;;-3.45;92.11
47761;BME280;33524;55.434;38.520;2023-12-29T04:57:02;99154.34;;;-3.55;93.27
47761;BME280;33524;55.434;38.520;2023-12-29T04:59:29;99149.81;;;-3.48;92.37
47761;BME280;33524;55.434;38.520;2023-12-29T05:01:57;99137.53;;;-3.40;92.36
47761;BME280;33524;55.434;38.520;2023-12-29T05:04:26;99129.00;;;-3.40;92.84
47761;BME280;33524;55.434;38.520;2023-12-29T05:06:54;99123.06;;;-2.95;94.12
47761;BME280;33524;55.434;38.520;2023-12-29T05:09:22;99123.13;;;-3.20;92.85
47761;BME280;33524;55.434;38.520;2023-12-29T05:11:50;99124.06;;;-3.23;92.88
47761;BME280;33524;55.434;38.520;2023-12-29T05:14:18;99117.28;;;-3.24;93.35
47761;BME280;33524;55.434;38.520;2023-12-29T05:16:46;99099.94;;;-3.19;93.83
47761;BME280;33524;55.434;38.520;2023-12-29T05:19:15;99101.50;;;-3.15;92.75
47761;BME280;33524;55.434;38.520;2023-12-29T05:21:43;99079.91;;;-3.11;92.30
47761;BME280;33524;55.434;38.520;2023-12-29T05:24:11;99080.34;;;-2.99;90.32
47761;BME280;33524;55.434;38.520;2023-12-29T05:26:40;99070.44;;;-3.10;90.44
47761;BME280;33524;55.434;38.520;2023-12-29T05:29:08;99066.53;;;-2.97;90.92
47761;BME280;33524;55.434;38.520;2023-12-29T05:31:36;99055.75;;;-2.62;90.51
47761;BME280;33524;55.434;38.520;2023-12-29T05:34:04;99048.16;;;-2.88;90.03
47761;BME280;33524;55.434;38.520;2023-12-29T05:36:36;99038.09;;;-2.94;91.61
47761;BME280;33524;55.434;38.520;2023-12-29T05:39:06;99035.47;;;-2.92;90.13
47761;BME280;33524;55.434;38.520;2023-12-29T05:41:34;99046.94;;;-3.23;91.21
47761;BME280;33524;55.434;38.520;2023-12-29T05:44:02;99042.50;;;-2.53;93.77
47761;BME280;33524;55.434;38.520;2023-12-29T05:46:30;99051.19;;;-3.00;90.32
47761;BME280;33524;55.434;38.520;2023-12-29T05:48:58;99059.47;;;-3.14;91.33
47761;BME280;33524;55.434;38.520;2023-12-29T05:51:27;99060.69;;;-3.24;92.07
47761;BME280;33524;55.434;38.520;2023-12-29T05:53:55;99046.13;;;-2.79;93.43
47761;BME280;33524;55.434;38.520;2023-12-29T05:56:23;99046.69;;;-3.17;91.98
47761;BME280;33524;55.434;38.520;2023-12-29T05:58:52;99050.50;;;-3.03;93.73
47761;BME280;33524;55.434;38.520;2023-12-29T06:01:21;99054.00;;;-3.28;93.36
47761;BME280;33524;55.434;38.520;2023-12-29T06:03:50;99051.66;;;-3.34;94.68
47761;BME280;33524;55.434;38.520;2023-12-29T06:06:18;99053.63;;;-3.19;95.60
47761;BME280;33524;55.434;38.520;2023-12-29T06:08:46;99049.00;;;-3.09;93.94
47761;BME280;33524;55.434;38.520;2023-12-29T06:11:17;99042.28;;;-3.13;94.58
47761;BME280;33524;55.434;38.520;2023-12-29T06:13:45;99041.91;;;-3.04;94.15
47761;BME280;33524;55.434;38.520;2023-12-29T06:16:20;99038.81;;;-3.12;94.94
47761;BME280;33524;55.434;38.520;2023-12-29T06:18:49;99029.62;;;-3.18;95.56
47761;BME280;33524;55.434;38.520;2023-12-29T06:21:17;99027.44;;;-3.07;94.94
47761;BME280;33524;55.434;38.520;2023-12-29T06:23:46;99025.34;;;-3.19;94.72
47761;BME280;33524;55.434;38.520;2023-12-29T06:26:20;99032.87;;;-3.14;93.86
47761;BME280;33524;55.434;38.520;2023-12-29T06:28:48;99019.25;;;-3.16;93.24
47761;BME280;33524;55.434;38.520;2023-12-29T06:31:17;99028.59;;;-3.14;93.74
47761;BME280;33524;55.434;38.520;2023-12-29T06:33:46;99036.31;;;-3.14;94.87
47761;BME280;33524;55.434;38.520;2023-12-29T06:36:14;99023.28;;;-3.09;95.38
47761;BME280;33524;55.434;38.520;2023-12-29T06:38:43;99029.97;;;-3.05;93.98
47761;BME280;33524;55.434;38.520;2023-12-29T06:41:16;99030.81;;;-3.05;93.79
47761;BME280;33524;55.434;38.520;2023-12-29T06:43:45;99020.50;;;-3.05;94.13
47761;BME280;33524;55.434;38.520;2023-12-29T06:46:13;99015.28;;;-3.01;94.75
47761;BME280;33524;55.434;38.520;2023-12-29T06:48:41;99006.62;;;-3.00;95.19
47761;BME280;33524;55.434;38.520;2023-12-29T06:51:16;99014.91;;;-2.92;96.02
47761;BME280;33524;55.434;38.520;2023-12-29T06:53:46;99008.88;;;-2.91;96.06
47761;BME280;33524;55.434;38.520;2023-12-29T06:56:17;99008.47;;;-2.82;94.72
47761;BME280;33524;55.434;38.520;2023-12-29T06:58:46;99008.91;;;-2.71;93.39
47761;BME280;33524;55.434;38.520;2023-12-29T07:01:14;99006.59;;;-2.77;93.23
47761;BME280;33524;55.434;38.520;2023-12-29T07:03:44;99014.31;;;-2.77;93.71
47761;BME280;33524;55.434;38.520;2023-12-29T07:06:29;99003.16;;;-2.77;94.32
47761;BME280;33524;55.434;38.520;2023-12-29T07:08:58;99001.44;;;-2.77;93.68
47761;BME280;33524;55.434;38.520;2023-12-29T07:11:28;99001.25;;;-2.72;93.15
47761;BME280;33524;55.434;38.520;2023-12-29T07:13:56;98996.03;;;-2.71;92.46
47761;BME280;33524;55.434;38.520;2023-12-29T07:16:24;98998.62;;;-2.71;92.21
47761;BME280;33524;55.434;38.520;2023-12-29T07:18:52;98990.13;;;-2.73;92.70
47761;BME280;33524;55.434;38.520;2023-12-29T07:21:21;98983.69;;;-2.42;93.17
47761;BME280;33524;55.434;38.520;2023-12-29T07:23:49;98984.63;;;-2.65;91.64
47761;BME280;33524;55.434;38.520;2023-12-29T07:26:17;98986.28;;;-2.62;91.08
47761;BME280;33524;55.434;38.520;2023-12-29T07:28:45;98975.84;;;-2.59;90.77
47761;BME280;33524;55.434;38.520;2023-12-29T07:31:13;98977.38;;;-2.55;91.02
47761;BME280;33524;55.434;38.520;2023-12-29T07:33:42;98981.44;;;-2.50;90.89
47761;BME280;33524;55.434;38.520;2023-12-29T07:36:10;98996.44;;;-2.59;91.25
47761;BME280;33524;55.434;38.520;2023-12-29T07:38:40;98994.22;;;-2.48;91.51
47761;BME280;33524;55.434;38.520;2023-12-29T07:41:10;98999.53;;;-2.51;91.48
47761;BME280;33524;55.434;38.520;2023-12-29T07:43:38;98984.84;;;-2.49;90.91
47761;BME280;33524;55.434;38.520;2023-12-29T07:46:07;99003.25;;;-2.38;90.86
47761;BME280;33524;55.434;38.520;2023-12-29T07:48:35;98984.91;;;-2.51;90.90
47761;BME280;33524;55.434;38.520;2023-12-29T07:51:05;98998.03;;;-2.36;91.14
47761;BME280;33524;55.434;38.520;2023-12-29T07:53:34;98994.50;;;-2.34;92.08
47761;BME280;33524;55.434;38.520;2023-12-29T07:56:02;98986.44;;;-2.26;91.05
47761;BME280;33524;55.434;38.520;2023-12-29T07:58:30;98989.06;;;-2.07;90.63
47761;BME280;33524;55.434;38.520;2023-12-29T08:00:58;98983.22;;;-2.11;90.36
47761;BME280;33524;55.434;38.520;2023-12-29T08:03:27;98980.44;;;-2.06;90.68
47761;BME280;33524;55.434;38.520;2023-12-29T08:05:55;98974.59;;;-2.10;90.30
47761;BME280;33524;55.434;38.520;2023-12-29T08:08:23;98979.53;;;-2.05;91.23
47761;BME280;33524;55.434;38.520;2023-12-29T08:10:54;98975.72;;;-1.96;90.24
47761;BME280;33524;55.434;38.520;2023-12-29T08:13:23;98976.56;;;-1.96;89.90
47761;BME280;33524;55.434;38.520;2023-12-29T08:15:52;98968.19;;;-2.01;90.24
47761;BME280;33524;55.434;38.520;2023-12-29T08:18:20;98968.91;;;-1.97;89.34
47761;BME280;33524;55.434;38.520;2023-12-29T08:20:48;98978.38;;;-1.98;89.87
47761;BME280;33524;55.434;38.520;2023-12-29T08:23:16;98948.56;;;-2.04;91.33
47761;BME280;33524;55.434;38.520;2023-12-29T08:25:44;98957.06;;;-1.83;89.12
47761;BME280;33524;55.434;38.520;2023-12-29T08:28:12;98958.75;;;-1.81;88.72
47761;BME280;33524;55.434;38.520;2023-12-29T08:30:41;98952.97;;;-1.87;89.73
47761;BME280;33524;55.434;38.520;2023-12-29T08:33:09;98951.31;;;-1.88;89.33
47761;BME280;33524;55.434;38.520;2023-12-29T08:35:45;98948.63;;;-1.86;88.60
47761;BME280;33524;55.434;38.520;2023-12-29T08:38:14;98921.47;;;-1.93;88.51
47761;BME280;33524;55.434;38.520;2023-12-29T08:40:45;98926.09;;;-1.81;88.26
47761;BME280;33524;55.434;38.520;2023-12-29T08:43:13;98919.19;;;-1.80;88.88
47761;BME280;33524;55.434;38.520;2023-12-29T08:45:41;98923.78;;;-1.68;89.18
47761;BME280;33524;55.434;38.520;2023-12-29T08:48:09;98925.31;;;-1.64;90.18
47761;BME280;33524;55.434;38.520;2023-12-29T08:50:37;98912.19;;;-1.59;90.45
47761;BME280;33524;55.434;38.520;2023-12-29T08:53:06;98919.47;;;-1.49;88.96
47761;BME280;33524;55.434;38.520;2023-12-29T08:55:34;98910.50;;;-1.42;88.98
47761;BME280;33524;55.434;38.520;2023-12-29T08:58:02;98910.22;;;-1.35;87.93
47761;BME280;33524;55.434;38.520;2023-12-29T09:00:31;98885.56;;;-1.41;87.61
47761;BME280;33524;55.434;38.520;2023-12-29T09:02:59;98901.44;;;-1.14;87.22
47761;BME280;33524;55.434;38.520;2023-12-29T09:05:27;98904.25;;;-1.18;88.74
47761;BME280;33524;55.434;38.520;2023-12-29T09:07:56;98897.34;;;-1.18;86.75
47761;BME280;33524;55.434;38.520;2023-12-29T09:10:24;98899.16;;;-1.20;86.73
47761;BME280;33524;55.434;38.520;2023-12-29T09:12:52;98902.38;;;-1.15;87.07
47761;BME280;33524;55.434;38.520;2023-12-29T09:15:21;98888.09;;;-1.22;87.55
47761;BME280;33524;55.434;38.520;2023-12-29T09:17:49;98896.59;;;-1.20;87.82
47761;BME280;33524;55.434;38.520;2023-12-29T09:20:20;98880.34;;;-1.22;89.61
47761;BME280;33524;55.434;38.520;2023-12-29T09:22:48;98883.97;;;-1.26;88.25
47761;BME280;33524;55.434;38.520;2023-12-29T09:25:16;98887.78;;;-1.33;88.18
47761;BME280;33524;55.434;38.520;2023-12-29T09:27:44;98887.09;;;-1.37;88.47
47761;BME280;33524;55.434;38.520;2023-12-29T09:30:16;98887.00;;;-1.53;88.75
47761;BME280;33524;55.434;38.520;2023-12-29T09:32:44;98885.66;;;-1.62;89.27
47761;BME280;33524;55.434;38.520;2023-12-29T09:35:12;98873.63;;;-1.61;90.04
47761;BME280;33524;55.434;38.520;2023-12-29T09:37:40;98871.81;;;-1.59;90.43
47761;BME280;33524;55.434;38.520;2023-12-29T09:40:10;98872.37;;;-1.35;89.99
47761;BME280;33524;55.434;38.520;2023-12-29T09:42:39;98870.19;;;-1.25;89.89
47761;BME280;33524;55.434;38.520;2023-12-29T09:45:11;98864.87;;;-1.22;89.79
47761;BME280;33524;55.434;38.520;2023-12-29T09:47:41;98863.03;;;-1.20;90.34
47761;BME280;33524;55.434;38.520;2023-12-29T09:50:11;98856.38;;;-1.24;89.72
47761;BME280;33524;55.434;38.520;2023-12-29T09:52:40;98860.63;;;-1.23;90.34
47761;BME280;33524;55.434;38.520;2023-12-29T09:55:10;98859.41;;;-1.16;90.48
47761;BME280;33524;55.434;38.520;2023-12-29T09:57:40;98854.56;;;-1.05;90.76
47761;BME280;33524;55.434;38.520;2023-12-29T10:00:10;98853.50;;;-1.00;90.13
47761;BME280;33524;55.434;38.520;2023-12-29T10:02:39;98848.50;;;-0.86;89.85
47761;BME280;33524;55.434;38.520;2023-12-29T10:05:11;98853.03;;;-0.74;89.29
47761;BME280;33524;55.434;38.520;2023-12-29T10:07:41;98848.69;;;-0.73;90.45
47761;BME280;33524;55.434;38.520;2023-12-29T10:10:15;98846.81;;;-0.70;90.17
47761;BME280;33524;55.434;38.520;2023-12-29T10:12:48;98833.59;;;-0.81;89.23
47761;BME280;33524;55.434;38.520;2023-12-29T10:15:32;98838.84;;;-0.83;89.29
47761;BME280;33524;55.434;38.520;2023-12-29T10:18:32;98831.50;;;-0.90;90.57
47761;BME280;33524;55.434;38.520;2023-12-29T10:21:30;98813.50;;;-0.92;90.67
47761;BME280;33524;55.434;38.520;2023-12-29T10:24:12;98808.94;;;-1.04;90.69
47761;BME280;33524;55.434;38.520;2023-12-29T10:26:45;98819.09;;;-0.84;89.48
47761;BME280;33524;55.434;38.520;2023-12-29T10:29:14;98823.75;;;-0.90;90.51
47761;BME280;33524;55.434;38.520;2023-12-29T10:31:44;98824.66;;;-0.91;91.14
47761;BME280;33524;55.434;38.520;2023-12-29T10:34:25;98834.13;;;-0.92;90.72
47761;BME280;33524;55.434;38.520;2023-12-29T10:37:02;98831.56;;;-0.92;90.62
47761;BME280;33524;55.434;38.520;2023-12-29T10:39:35;98825.56;;;-0.92;91.04
47761;BME280;33524;55.434;38.520;2023-12-29T10:42:08;98821.31;;;-0.93;91.16
47761;BME280;33524;55.434;38.520;2023-12-29T10:44:38;98827.22;;;-0.91;90.52
47761;BME280;33524;55.434;38.520;2023-12-29T10:47:11;98837.03;;;-0.98;90.48
47761;BME280;33524;55.434;38.520;2023-12-29T10:49:40;98825.13;;;-1.00;90.54
47761;BME280;33524;55.434;38.520;2023-12-29T10:52:19;98824.56;;;-0.90;90.47
47761;BME280;33524;55.434;38.520;2023-12-29T10:55:04;98802.34;;;-1.10;90.69
47761;BME280;33524;55.434;38.520;2023-12-29T10:57:34;98824.50;;;-0.88;91.36
47761;BME280;33524;55.434;38.520;2023-12-29T11:00:03;98810.66;;;-0.87;92.19
47761;BME280;33524;55.434;38.520;2023-12-29T11:02:32;98806.19;;;-0.84;92.14
47761;BME280;33524;55.434;38.520;2023-12-29T11:05:06;98790.31;;;-0.76;91.04
47761;BME280;33524;55.434;38.520;2023-12-29T11:07:39;98804.25;;;-0.63;90.47
47761;BME280;33524;55.434;38.520;2023-12-29T11:10:08;98800.78;;;-0.62;92.00
47761;BME280;33524;55.434;38.520;2023-12-29T11:12:38;98801.28;;;-0.55;90.29
47761;BME280;33524;55.434;38.520;2023-12-29T11:15:07;98804.84;;;-0.57;90.69
47761;BME280;33524;55.434;38.520;2023-12-29T11:17:36;98805.31;;;-0.67;91.89
47761;BME280;33524;55.434;38.520;2023-12-29T11:20:04;98812.25;;;-0.67;91.80
47761;BME280;33524;55.434;38.520;2023-12-29T11:22:33;98815.91;;;-0.71;92.33
47761;BME280;33524;55.434;38.520;2023-12-29T11:25:01;98817.13;;;-0.78;93.24
47761;BME280;33524;55.434;38.520;2023-12-29T11:27:32;98816.81;;;-0.72;93.40
47761;BME280;33524;55.434;38.520;2023-12-29T11:30:01;98825.16;;;-0.67;92.87
47761;BME280;33524;55.434;38.520;2023-12-29T11:35:28;98815.50;;;-0.64;92.26
47761;BME280;33524;55.434;38.520;2023-12-29T11:38:25;98820.00;;;-0.67;92.88
47761;BME280;33524;55.434;38.520;2023-12-29T11:41:33;98813.16;;;-0.68;92.77
47761;BME280;33524;55.434;38.520;2023-12-29T11:44:05;98815.97;;;-0.73;92.99
47761;BME280;33524;55.434;38.520;2023-12-29T11:49:03;98818.09;;;-0.64;93.32
47761;BME280;33524;55.434;38.520;2023-12-29T11:51:47;98807.84;;;-0.65;93.10
47761;BME280;33524;55.434;38.520;2023-12-29T11:54:25;98813.69;;;-0.62;92.63
47761;BME280;33524;55.434;38.520;2023-12-29T11:56:54;98793.78;;;-0.59;92.32
47761;BME280;33524;55.434;38.520;2023-12-29T11:59:26;98799.84;;;-0.61;93.96
47761;BME280;33524;55.434;38.520;2023-12-29T12:02:00;98802.03;;;-0.53;93.46
47761;BME280;33524;55.434;38.520;2023-12-29T12:04:42;98806.81;;;-0.45;92.79
47761;BME280;33524;55.434;38.520;2023-12-29T12:09:50;98804.13;;;-0.44;94.05
47761;BME280;33524;55.434;38.520;2023-12-29T12:12:39;98816.94;;;-0.42;93.84
47761;BME280;33524;55.434;38.520;2023-12-29T12:17:58;98818.34;;;-0.52;94.52
47761;BME280;33524;55.434;38.520;2023-12-29T12:20:28;98816.69;;;-0.53;94.58
47761;BME280;33524;55.434;38.520;2023-12-29T12:23:01;98826.41;;;-0.58;95.19
47761;BME280;33524;55.434;38.520;2023-12-29T12:25:31;98833.47;;;-0.62;95.77
47761;BME280;33524;55.434;38.520;2023-12-29T12:28:07;98827.34;;;-0.59;96.37
47761;BME280;33524;55.434;38.520;2023-12-29T12:30:36;98829.31;;;-0.65;96.21
47761;BME280;33524;55.434;38.520;2023-12-29T12:33:05;98825.66;;;-0.61;96.44
47761;BME280;33524;55.434;38.520;2023-12-29T12:35:34;98827.34;;;-0.59;96.68
47761;BME280;33524;55.434;38.520;2023-12-29T12:38:15;98823.00;;;-0.59;96.13
47761;BME280;33524;55.434;38.520;2023-12-29T12:40:50;98822.19;;;-0.59;96.51
47761;BME280;33524;55.434;38.520;2023-12-29T12:43:20;98828.16;;;-0.59;97.13
47761;BME280;33524;55.434;38.520;2023-12-29T12:46:00;98829.00;;;-0.58;96.71
47761;BME280;33524;55.434;38.520;2023-12-29T12:48:43;98815.66;;;-0.67;96.47
47761;BME280;33524;55.434;38.520;2023-12-29T12:51:14;98810.16;;;-0.76;96.75
47761;BME280;33524;55.434;38.520;2023-12-29T12:53:43;98817.34;;;-0.66;96.97
47761;BME280;33524;55.434;38.520;2023-12-29T12:56:12;98818.00;;;-0.62;97.21
47761;BME280;33524;55.434;38.520;2023-12-29T12:58:40;98825.59;;;-0.59;97.46
47761;BME280;33524;55.434;38.520;2023-12-29T13:01:09;98834.91;;;-0.56;97.17
47761;BME280;33524;55.434;38.520;2023-12-29T13:03:39;98829.16;;;-0.62;97.82
47761;BME280;33524;55.434;38.520;2023-12-29T13:06:07;98835.09;;;-0.59;98.17
47761;BME280;33524;55.434;38.520;2023-12-29T13:08:36;98832.50;;;-0.59;98.30
47761;BME280;33524;55.434;38.520;2023-12-29T13:11:10;98837.66;;;-0.59;98.77
47761;BME280;33524;55.434;38.520;2023-12-29T13:13:45;98841.00;;;-0.57;98.75
47761;BME280;33524;55.434;38.520;2023-12-29T13:16:13;98847.06;;;-0.58;99.06
47761;BME280;33524;55.434;38.520;2023-12-29T13:18:44;98842.66;;;-0.56;99.25
47761;BME280;33524;55.434;38.520;2023-12-29T13:21:17;98844.34;;;-0.55;99.40
47761;BME280;33524;55.434;38.520;2023-12-29T13:23:47;98839.62;;;-0.65;100.00
47761;BME280;33524;55.434;38.520;2023-12-29T13:26:19;98841.84;;;-0.57;100.00